Time;durP1;ratioP1;P1;durP2;ratioP2;P2;SDS_P1;SDS_P2;PMS_P1;PMS_P2;Temp;Humidity;BMP_temperature;BMP_pressure;BME280_temperature;BME280_humidity;BME280_pressure;Samples;Min_cycle;Max_cycle;Signal;HPM_P1;HPM_P2
2022/08/11 00:01:59;;;;;;;5.53;5.30;;;;;;;18.71;66.24;101923.16;6097507;23;20018;-72
2022/08/11 00:04:33;;;;;;;5.60;5.30;;;;;;;18.45;65.96;101883.19;6074074;23;20022;-72
2022/08/11 00:07:02;;;;;;;6.00;5.70;;;;;;;18.61;66.56;101919.41;6098598;23;20017;-72
2022/08/11 00:09:33;;;;;;;5.78;5.47;;;;;;;18.37;65.82;101882.00;6050445;23;20030;-72
2022/08/11 00:12:13;;;;;;;5.80;5.50;;;;;;;18.76;66.25;101946.75;6070384;23;20355;-72
2022/08/11 00:14:43;;;;;;;6.95;6.57;;;;;;;18.46;65.94;101900.00;6082650;23;20105;-73
2022/08/11 00:17:12;;;;;;;5.30;5.10;;;;;;;18.30;66.40;101873.56;6100575;23;20107;-72
2022/08/11 00:19:44;;;;;;;5.90;5.60;;;;;;;18.70;66.82;101940.91;6102721;23;20052;-72
2022/08/11 00:22:32;;;;;;;5.68;5.38;;;;;;;17.64;66.75;101779.59;6081435;23;20010;-73
2022/08/11 00:25:21;;;;;;;5.57;5.30;;;;;;;18.64;66.07;101938.66;6076018;23;20014;-72
2022/08/11 00:27:48;;;;;;;5.90;5.60;;;;;;;18.46;66.06;101908.84;6072682;23;20172;-73
2022/08/11 00:30:15;;;;;;;5.40;5.20;;;;;;;18.33;65.82;101897.31;6114179;23;20021;-72
2022/08/11 00:32:53;;;;;;;6.22;5.93;;;;;;;18.03;65.41;101852.34;6081925;23;20033;-71
2022/08/11 00:35:26;;;;;;;6.05;5.53;;;;;;;18.14;65.52;101868.41;6093051;23;20086;-72
2022/08/11 00:38:13;;;;;;;5.40;5.20;;;;;;;18.14;66.00;101884.34;6086273;23;20342;-72
2022/08/11 00:41:03;;;;;;;6.47;6.18;;;;;;;18.47;66.54;101930.94;6074578;23;20022;-71
2022/08/11 00:43:56;;;;;;;5.85;5.35;;;;;;;18.42;65.56;101925.94;6056229;23;20016;-71
2022/08/11 00:46:26;;;;;;;5.10;4.90;;;;;;;18.38;66.16;101935.06;6011487;23;20098;-71
2022/08/11 00:49:26;;;;;;;5.15;4.93;;;;;;;18.36;66.86;101921.00;6090609;23;20037;-72
2022/08/11 00:52:29;;;;;;;5.50;5.30;;;;;;;18.30;67.09;101932.91;6104404;23;20022;-72
2022/08/11 00:55:32;;;;;;;5.10;4.90;;;;;;;18.25;66.93;101929.69;6080599;23;20009;-73
2022/08/11 00:58:14;;;;;;;5.55;5.30;;;;;;;18.17;68.08;101932.00;6065547;23;20656;-72
2022/08/11 01:01:32;;;;;;;6.40;6.10;;;;;;;18.12;68.76;101928.78;6097611;23;20079;-72
2022/08/11 01:04:31;;;;;;;5.40;5.10;;;;;;;16.92;69.61;101751.38;6007964;23;20014;-73
2022/08/11 01:07:22;;;;;;;5.40;5.20;;;;;;;17.89;70.52;101927.59;6060027;23;20115;-72
2022/08/11 01:10:47;;;;;;;5.28;5.07;;;;;;;17.74;72.90;101929.41;6082264;23;20194;-72
2022/08/11 01:13:50;;;;;;;5.70;5.40;;;;;;;17.66;74.71;101926.34;6083804;23;20052;-72
2022/08/11 01:16:44;;;;;;;6.00;5.70;;;;;;;16.52;73.92;101779.44;6092260;23;20443;-73
2022/08/11 01:19:14;;;;;;;5.47;5.18;;;;;;;17.58;74.36;101921.53;6075588;23;20302;-73
2022/08/11 01:22:10;;;;;;;6.50;6.20;;;;;;;17.58;73.75;101920.66;6063880;23;20016;-73
2022/08/11 01:25:15;;;;;;;6.18;5.88;;;;;;;17.51;73.45;101923.69;6114492;23;20021;-72
2022/08/11 01:27:59;;;;;;;6.57;6.07;;;;;;;17.46;73.84;101925.81;6096840;23;20010;-72
2022/08/11 01:30:46;;;;;;;5.55;5.35;;;;;;;17.44;73.67;101922.41;6091645;23;20014;-73
2022/08/11 01:33:34;;;;;;;5.40;5.10;;;;;;;17.40;73.91;101920.00;6090008;23;20085;-73
2022/08/11 01:36:24;;;;;;;5.18;4.97;;;;;;;17.35;74.54;101914.97;6108921;23;20014;-73
2022/08/11 01:39:24;;;;;;;5.90;5.60;;;;;;;17.32;74.24;101916.03;6061911;23;20060;-72
2022/08/11 01:45:22;;;;;;;5.30;5.10;;;;;;;17.23;74.50;101916.59;6075635;23;20087;-73
2022/08/11 01:48:04;;;;;;;5.50;5.30;;;;;;;17.21;74.03;101917.63;6088310;23;20018;-73
2022/08/11 01:51:02;;;;;;;5.47;5.28;;;;;;;17.16;74.92;101917.91;6114534;23;20087;-73
2022/08/11 01:53:49;;;;;;;5.20;5.00;;;;;;;17.13;74.53;101915.44;6090406;23;20692;-72
2022/08/11 01:56:43;;;;;;;5.00;4.80;;;;;;;15.97;74.30;101727.09;6046018;23;20025;-73
2022/08/11 01:59:32;;;;;;;5.10;4.90;;;;;;;17.05;75.63;101909.75;6092364;23;20021;-73
2022/08/11 02:02:18;;;;;;;5.22;5.03;;;;;;;16.99;74.85;101915.41;6048132;23;20077;-72
2022/08/11 02:05:09;;;;;;;6.53;6.20;;;;;;;16.46;75.05;101833.66;6063017;23;20120;-72
2022/08/11 02:08:15;;;;;;;6.25;5.95;;;;;;;16.90;75.51;101909.72;6083461;23;20395;-71
2022/08/11 02:13:45;;;;;;;6.25;5.95;;;;;;;16.84;75.68;101906.56;6065031;23;20141;-72
2022/08/11 02:16:36;;;;;;;5.03;4.82;;;;;;;16.81;75.64;101907.59;6111858;23;20104;-73
2022/08/11 02:25:22;;;;;;;5.53;5.22;;;;;;;16.73;75.60;101913.31;6086878;23;20390;-73
2022/08/11 02:27:59;;;;;;;5.80;5.50;;;;;;;16.58;75.72;101889.50;6100828;23;20419;-73
2022/08/11 02:30:38;;;;;;;5.13;4.93;;;;;;;16.68;75.56;101910.09;6085699;23;20026;-73
2022/08/11 02:33:23;;;;;;;5.75;5.35;;;;;;;16.65;75.92;101906.78;6111915;23;20475;-73
2022/08/11 02:36:00;;;;;;;5.38;5.07;;;;;;;16.59;76.84;101901.84;6082120;23;20040;-73
2022/08/11 02:39:08;;;;;;;5.30;5.10;;;;;;;16.54;77.76;101899.47;6077407;23;20069;-73
2022/08/11 02:45:36;;;;;;;5.35;5.15;;;;;;;16.38;78.74;101899.50;6105069;23;20029;-73
2022/08/11 02:51:35;;;;;;;5.32;5.03;;;;;;;16.18;79.23;101897.97;6101806;23;20068;-73
2022/08/11 02:54:13;;;;;;;5.50;5.20;;;;;;;16.15;80.45;101919.31;6056653;23;20409;-73
2022/08/11 02:57:04;;;;;;;6.22;5.88;;;;;;;16.08;80.38;101897.63;6071584;23;20109;-73
2022/08/11 02:59:52;;;;;;;6.07;5.78;;;;;;;16.03;80.57;101899.69;6102759;23;20073;-73
2022/08/11 03:02:46;;;;;;;5.20;5.00;;;;;;;15.99;82.85;101910.53;6070742;23;20088;-73
2022/08/11 03:05:48;;;;;;;5.40;5.20;;;;;;;15.94;83.52;101893.13;6097807;23;20025;-73
2022/08/11 03:08:40;;;;;;;5.28;5.07;;;;;;;15.93;82.89;101899.34;6095022;23;20006;-73
2022/08/11 03:18:11;;;;;;;6.13;5.72;;;;;;;15.98;82.62;101899.09;6083998;23;20025;-73
2022/08/11 03:20:50;;;;;;;6.15;5.85;;;;;;;15.34;81.73;101797.63;6035956;23;20078;-73
2022/08/11 03:23:23;;;;;;;4.95;4.75;;;;;;;15.97;81.96;101909.78;6105393;23;20029;-73
2022/08/11 03:25:57;;;;;;;;;;;;;;;15.97;81.50;101894.72;6088960;23;20018;-73
2022/08/11 03:28:35;;;;;;;5.00;4.80;;;;;;;15.97;81.62;101897.38;6047160;23;19906;-73
2022/08/11 03:31:23;;;;;;;5.20;5.00;;;;;;;15.95;81.14;101897.44;6094598;23;20035;-72
2022/08/11 03:34:08;;;;;;;5.60;5.35;;;;;;;15.97;81.05;101899.19;6056216;23;20156;-73
2022/08/11 03:37:03;;;;;;;5.93;5.63;;;;;;;15.93;82.31;101896.69;6080668;23;20439;-73
2022/08/11 03:40:07;;;;;;;6.10;5.80;;;;;;;15.90;82.49;101894.22;6071156;23;20041;-73
2022/08/11 03:42:57;;;;;;;5.88;5.55;;;;;;;15.87;83.46;101899.69;6100359;23;20447;-73
2022/08/11 03:45:33;;;;;;;5.22;4.95;;;;;;;15.56;83.56;101845.75;6080821;23;20014;-73
2022/08/11 03:48:18;;;;;;;5.10;4.90;;;;;;;15.80;83.56;101893.03;6084474;23;20583;-73
2022/08/11 03:51:01;;;;;;;6.18;5.88;;;;;;;15.21;84.05;101800.06;6053346;23;20041;-73
2022/08/11 03:53:48;;;;;;;5.10;4.90;;;;;;;14.84;83.72;101743.03;6111687;23;20025;-74
2022/08/11 03:56:43;;;;;;;5.30;5.07;;;;;;;15.70;84.18;101886.50;6097496;23;20072;-74
2022/08/11 03:59:38;;;;;;;5.68;5.38;;;;;;;15.66;85.05;101884.97;6081884;23;20034;-73
2022/08/11 04:02:08;;;;;;;5.20;5.00;;;;;;;15.65;85.34;101891.19;6095842;23;20013;-73
2022/08/11 04:05:06;;;;;;;6.10;5.80;;;;;;;15.64;84.43;101884.19;6092969;23;20103;-73
2022/08/11 04:07:51;;;;;;;5.82;5.53;;;;;;;15.64;84.78;101886.84;6087756;23;20024;-73
2022/08/11 04:10:37;;;;;;;5.43;5.15;;;;;;;15.62;84.52;101883.44;6096569;23;20017;-73
2022/08/11 04:13:26;;;;;;;5.10;4.90;;;;;;;15.59;84.66;101884.44;6102443;23;20049;-73
2022/08/11 04:16:14;;;;;;;5.85;5.55;;;;;;;15.58;84.92;101887.19;6086993;23;20314;-73
2022/08/11 04:19:09;;;;;;;6.07;5.78;;;;;;;15.58;85.87;101889.81;6071462;23;20019;-73
2022/08/11 04:21:55;;;;;;;6.07;5.78;;;;;;;15.59;85.76;101883.56;6082410;23;20080;-73
2022/08/11 04:24:39;;;;;;;5.20;5.00;;;;;;;15.68;85.74;101883.94;6063893;23;20174;-73
2022/08/11 04:27:24;;;;;;;5.15;4.95;;;;;;;15.93;85.34;101879.97;6091456;23;20084;-73
2022/08/11 04:30:57;;;;;;;5.05;4.85;;;;;;;16.28;83.88;101875.31;6086704;23;20028;-74
2022/08/11 04:34:06;;;;;;;5.10;4.90;;;;;;;16.64;82.07;101874.13;5986166;23;20087;-74
2022/08/11 04:40:01;;;;;;;5.70;5.40;;;;;;;17.32;76.88;101870.09;6071885;23;20018;-73
2022/08/11 04:46:00;;;;;;;5.75;5.45;;;;;;;17.79;73.68;101818.41;6107326;23;20028;-73
2022/08/11 05:01:41;;;;;;;5.30;5.00;;;;;;;18.90;71.62;101835.00;6093563;23;20395;-74
2022/08/11 05:07:52;;;;;;;5.72;5.43;;;;;;;20.29;65.79;101831.25;6079446;23;20030;-74
2022/08/11 05:10:42;;;;;;;;;;;;;;;20.54;63.95;101827.53;6092588;23;20103;-74
2022/08/11 05:36:46;;;;;;;6.47;6.18;;;;;;;22.78;54.53;101687.28;6086916;23;20037;-73
2022/08/11 05:56:58;;;;;;;6.47;6.10;;;;;;;24.39;50.86;101728.84;6081471;23;20631;-73
2022/08/11 05:59:35;;;;;;;6.30;6.00;;;;;;;24.82;50.49;101791.91;6088360;23;20025;-73
2022/08/11 06:02:04;;;;;;;6.70;6.20;;;;;;;22.63;49.80;101389.78;6062227;23;20116;-73
2022/08/11 06:04:34;;;;;;;6.20;5.90;;;;;;;25.00;49.85;101759.75;6064813;23;20189;-73
2022/08/11 06:07:08;;;;;;;6.20;5.80;;;;;;;24.65;48.99;101761.28;6098689;23;20477;-73
2022/08/11 06:09:47;;;;;;;6.90;6.60;;;;;;;24.62;49.80;101814.44;6085962;23;20081;-72
2022/08/11 06:12:21;;;;;;;6.68;6.28;;;;;;;24.01;50.48;101824.47;6090552;23;20016;-73
2022/08/11 06:15:02;;;;;;;7.13;6.78;;;;;;;23.24;51.40;101775.09;6067346;23;20037;-73
2022/08/11 06:17:35;;;;;;;6.68;6.28;;;;;;;22.63;51.55;101751.88;6068217;23;20030;-74
2022/08/11 06:20:11;;;;;;;5.97;5.68;;;;;;;22.97;51.78;101847.94;6080055;23;20037;-73
2022/08/11 06:22:56;;;;;;;7.57;7.18;;;;;;;22.54;53.15;101819.53;6055238;23;20018;-73
2022/08/11 06:25:34;;;;;;;6.50;6.20;;;;;;;22.15;52.79;101767.56;6075926;23;20018;-74
2022/08/11 06:28:05;;;;;;;6.20;5.90;;;;;;;22.34;52.11;101807.84;6097207;23;20013;-73
2022/08/11 06:30:39;;;;;;;6.72;6.43;;;;;;;22.15;52.99;101775.59;6087043;23;20492;-74
2022/08/11 06:33:10;;;;;;;6.60;6.25;;;;;;;22.57;53.07;101861.22;6077609;23;20083;-74
2022/08/11 06:36:01;;;;;;;7.80;7.30;;;;;;;22.46;52.80;101846.09;6095017;23;20276;-75
2022/08/11 06:39:10;;;;;;;6.32;6.03;;;;;;;22.63;51.98;101847.31;6091851;23;20037;-74
2022/08/11 06:41:45;;;;;;;7.30;6.68;;;;;;;22.70;51.80;101852.03;6083784;23;20475;-74
2022/08/11 06:44:12;;;;;;;6.50;6.10;;;;;;;22.87;51.02;101858.63;6069588;23;20013;-74
2022/08/11 06:46:40;;;;;;;7.55;7.15;;;;;;;22.46;50.38;101782.72;6094691;23;20014;-74
2022/08/11 06:51:10;;;;;;;6.35;5.95;;;;;;;22.70;50.12;101782.44;6051727;23;20315;-74
2022/08/11 06:52:00;;;;;;;5.90;5.60;;;;;;;23.28;49.91;101845.31;6096446;23;20041;-74
2022/08/11 06:54:40;;;;;;;5.93;5.53;;;;;;;23.35;48.82;101824.19;6071228;23;20077;-73
2022/08/11 07:00:26;;;;;;;6.30;6.00;;;;;;;23.11;47.02;101779.84;6081161;23;20087;-73
2022/08/11 07:03:09;;;;;;;6.25;5.95;;;;;;;23.60;46.56;101842.44;6099545;23;20017;-73
2022/08/11 07:05:54;;;;;;;6.60;6.30;;;;;;;23.59;46.89;101847.94;6032182;23;20014;-73
2022/08/11 07:16:50;;;;;;;6.68;6.38;;;;;;;23.55;45.13;101788.41;6063669;23;20037;-74
2022/08/11 07:30:48;;;;;;;6.80;6.50;;;;;;;23.78;43.08;101764.91;6100561;23;20437;-74
2022/08/11 07:33:27;;;;;;;6.90;6.40;;;;;;;24.25;43.70;101815.16;6095653;23;20014;-76
2022/08/11 07:36:15;;;;;;;6.28;5.97;;;;;;;24.44;43.16;101825.03;6084138;23;20459;-73
2022/08/11 07:38:50;;;;;;;8.25;7.57;;;;;;;24.68;43.19;101825.44;6074325;23;20676;-74
2022/08/11 07:41:20;;;;;;;6.40;5.88;;;;;;;24.86;42.53;101820.16;6069686;23;20014;-74
2022/08/11 07:43:54;;;;;;;7.30;6.80;;;;;;;24.60;41.74;101765.44;6084142;23;20024;-74
2022/08/11 07:54:44;;;;;;;6.70;6.40;;;;;;;25.28;40.50;101808.97;6084891;23;20094;-76
2022/08/11 08:20:13;;;;;;;6.10;5.80;;;;;;;25.75;37.06;101738.06;6083074;23;20013;-73
2022/08/11 08:22:43;;;;;;;6.90;6.50;;;;;;;26.43;37.91;101807.41;6072394;23;20016;-74
2022/08/11 08:25:29;;;;;;;6.60;6.22;;;;;;;26.65;37.58;101799.84;6062837;23;20018;-75
2022/08/11 08:27:57;;;;;;;5.82;5.53;;;;;;;26.77;36.94;101803.13;6077697;23;20022;-74
2022/08/11 08:30:46;;;;;;;6.15;5.85;;;;;;;26.54;37.16;101770.47;6094299;23;20014;-74
2022/08/11 08:33:19;;;;;;;6.00;5.70;;;;;;;26.81;36.58;101791.84;6077493;23;20045;-74
2022/08/11 08:35:47;;;;;;;7.05;6.75;;;;;;;26.66;36.53;101744.97;6100171;23;20066;-73
2022/08/11 08:38:21;;;;;;;6.20;5.90;;;;;;;27.12;35.43;101814.72;6097869;23;20527;-74
2022/08/11 08:40:52;;;;;;;7.82;7.43;;;;;;;27.10;35.77;101811.34;6097806;23;20587;-72
2022/08/11 08:43:23;;;;;;;5.97;5.68;;;;;;;27.02;36.25;101815.72;6092252;23;20077;-72
2022/08/11 08:45:54;;;;;;;6.63;6.10;;;;;;;27.13;35.85;101787.63;6090151;23;20270;-72
2022/08/11 08:48:27;;;;;;;6.20;5.90;;;;;;;26.98;35.63;101747.00;6099404;23;20029;-73
2022/08/11 08:54:13;;;;;;;6.88;6.45;;;;;;;27.49;35.34;101749.69;6103268;23;20076;-72
2022/08/11 08:56:42;;;;;;;9.82;7.50;;;;;;;27.73;34.86;101767.75;6056135;23;20057;-74
2022/08/11 08:59:12;;;;;;;6.05;5.75;;;;;;;28.04;34.74;101818.38;6075966;23;20987;-75
2022/08/11 09:01:46;;;;;;;9.68;8.93;;;;;;;28.04;35.14;101797.66;6095485;23;20682;-75
2022/08/11 09:04:14;;;;;;;5.90;5.60;;;;;;;28.21;33.77;101797.66;6102124;23;20018;-75
2022/08/11 09:06:47;;;;;;;7.15;6.85;;;;;;;28.39;34.51;101817.22;6057745;23;20084;-75
2022/08/11 09:09:19;;;;;;;6.10;5.80;;;;;;;28.47;33.81;101819.06;6107883;23;20028;-74
2022/08/11 09:11:51;;;;;;;7.25;6.95;;;;;;;28.50;34.05;101821.44;6079729;23;20733;-74
2022/08/11 09:17:13;;;;;;;6.30;6.00;;;;;;;28.68;33.15;101807.72;6077032;23;20013;-75
2022/08/11 09:19:40;;;;;;;8.15;7.75;;;;;;;28.87;31.82;101824.56;6093228;23;20030;-74
2022/08/11 09:27:40;;;;;;;7.45;6.75;;;;;;;28.68;33.15;101758.28;6083438;23;20093;-74
2022/08/11 09:30:18;;;;;;;6.32;6.00;;;;;;;28.71;32.60;101763.34;6092058;23;20124;-73
2022/08/11 09:32:45;;;;;;;7.55;7.07;;;;;;;29.27;31.63;101828.16;6081062;23;20097;-73
2022/08/11 09:35:13;;;;;;;5.93;5.63;;;;;;;29.49;32.24;101823.81;6091454;23;20014;-74
2022/08/11 09:40:32;;;;;;;6.03;5.73;;;;;;;29.01;32.26;101735.50;6035529;23;20021;-75
2022/08/11 09:45:53;;;;;;;6.70;6.40;;;;;;;29.68;32.01;101815.25;6093413;23;20080;-74
2022/08/11 09:48:21;;;;;;;6.22;5.88;;;;;;;29.32;31.14;101834.72;6095789;23;20100;-74
2022/08/11 09:50:50;;;;;;;7.18;6.82;;;;;;;29.24;31.05;101835.59;6061455;23;20040;-73
2022/08/11 09:53:18;;;;;;;6.30;6.00;;;;;;;29.39;31.72;101808.69;6087699;23;20076;-73
2022/08/11 09:59:03;;;;;;;6.15;5.85;;;;;;;29.74;30.88;101759.63;6033346;23;20482;-73
2022/08/11 10:01:45;;;;;;;6.13;5.82;;;;;;;30.08;29.44;101832.25;6100218;23;20022;-71
2022/08/11 10:04:21;;;;;;;6.30;6.00;;;;;;;29.78;30.00;101767.19;6061529;23;20608;-73
2022/08/11 10:07:05;;;;;;;7.07;6.68;;;;;;;30.38;30.14;101816.13;6090845;23;20242;-73
2022/08/11 10:09:45;;;;;;;6.80;6.43;;;;;;;30.21;29.40;101813.53;6060191;23;20038;-73
2022/08/11 10:12:16;;;;;;;6.60;6.28;;;;;;;29.82;29.09;101792.88;6085982;23;20020;-74
2022/08/11 10:17:35;;;;;;;5.93;5.63;;;;;;;30.38;28.27;101808.84;6107700;23;20017;-77
2022/08/11 10:20:03;;;;;;;6.35;5.95;;;;;;;30.31;28.38;101790.78;6079246;23;20026;-73
2022/08/11 10:28:08;;;;;;;6.25;5.85;;;;;;;30.35;26.73;101830.88;6100299;23;20015;-74
2022/08/11 10:33:59;;;;;;;7.57;7.10;;;;;;;29.69;28.66;101722.25;6089021;23;20025;-74
2022/08/11 10:36:32;;;;;;;;;;;;;;;30.27;28.08;101805.69;6054069;23;20603;-73
2022/08/11 10:39:01;;;;;;;6.38;6.07;;;;;;;29.87;28.20;101772.53;6072431;23;19906;-74
2022/08/11 10:44:40;;;;;;;7.00;6.60;;;;;;;30.25;28.67;101759.00;6073317;23;20382;-73
2022/08/11 11:01:09;;;;;;;6.18;5.82;;;;;;;29.70;27.63;101596.78;6108298;23;20017;-74
2022/08/11 11:03:37;;;;;;;7.03;6.63;;;;;;;30.45;27.46;101668.09;6052852;23;20006;-74
2022/08/11 11:06:29;;;;;;;6.18;5.88;;;;;;;31.28;27.34;101777.16;6059602;23;20014;-74
2022/08/11 11:09:10;;;;;;;6.00;5.70;;;;;;;31.12;26.89;101782.81;6054968;23;20013;-73
2022/08/11 11:20:24;;;;;;;6.18;5.85;;;;;;;31.12;26.36;101772.78;6093726;23;20041;-73
2022/08/11 11:23:18;;;;;;;6.18;5.88;;;;;;;30.77;27.82;101682.22;6073353;23;20002;-73
2022/08/11 11:26:05;;;;;;;;;;;;;;;31.75;26.95;101762.25;6081496;23;20026;-74
2022/08/11 11:28:56;;;;;;;6.38;6.07;;;;;;;31.29;26.75;101750.88;6050305;23;20340;-73
2022/08/11 11:31:40;;;;;;;6.18;5.78;;;;;;;31.90;26.80;101755.88;6095339;23;20046;-73
2022/08/11 11:34:48;;;;;;;6.55;6.20;;;;;;;31.31;25.91;101727.97;6046725;23;20024;-75
2022/08/11 11:37:22;;;;;;;6.03;5.72;;;;;;;31.34;25.47;101678.72;6063903;23;20030;-76
2022/08/11 11:39:49;;;;;;;6.57;6.25;;;;;;;31.31;26.12;101706.25;6056430;23;20020;-75
2022/08/11 11:42:17;;;;;;;6.25;5.95;;;;;;;29.73;26.26;101526.09;6085010;23;20009;-76
2022/08/11 11:44:45;;;;;;;7.22;6.93;;;;;;;30.94;26.22;101767.78;6059229;23;20113;-77
2022/08/11 11:47:13;;;;;;;6.20;5.90;;;;;;;30.40;25.76;101646.16;6092781;23;20026;-78
2022/08/11 11:49:42;;;;;;;7.32;6.93;;;;;;;29.58;26.27;101541.44;6081226;23;20049;-79
2022/08/11 11:52:19;;;;;;;6.22;5.93;;;;;;;27.68;26.27;101246.91;6048504;23;20040;-77
2022/08/11 11:54:50;;;;;;;6.68;6.38;;;;;;;28.52;26.37;101376.53;6073325;23;20073;-78
2022/08/11 12:03:15;;;;;;;6.10;5.80;;;;;;;31.00;25.33;101692.97;6097514;23;20021;-78
2022/08/11 12:05:44;;;;;;;6.10;5.80;;;;;;;31.12;26.32;101691.44;6077013;23;20178;-78
2022/08/11 12:08:35;;;;;;;6.25;5.85;;;;;;;31.64;25.71;101732.91;6090039;23;20332;-75
2022/08/11 12:13:54;;;;;;;6.47;6.18;;;;;;;31.06;26.01;101743.72;6083477;23;20431;-75
2022/08/11 12:16:22;;;;;;;6.05;5.75;;;;;;;31.22;26.00;101712.81;6067982;23;20597;-73
2022/08/11 12:19:10;;;;;;;6.10;5.80;;;;;;;31.10;26.23;101688.09;6085351;23;20085;-73
2022/08/11 12:27:19;;;;;;;7.07;6.68;;;;;;;31.62;25.83;101734.13;6054032;23;20101;-73
2022/08/11 12:27:20;;;;;;;6.05;5.75;;;;;;;32.14;25.53;101722.88;6101524;23;20024;-75
2022/08/11 12:29:54;;;;;;;5.93;5.63;;;;;;;31.99;24.06;101711.25;6078701;23;20166;-75
2022/08/11 12:32:25;;;;;;;6.20;5.90;;;;;;;31.30;24.83;101628.63;6079654;23;20090;-75
2022/08/11 12:34:52;;;;;;;6.85;6.45;;;;;;;31.80;24.58;101713.63;6069440;23;20040;-75
2022/08/11 12:37:23;;;;;;;6.00;5.70;;;;;;;31.51;25.24;101728.19;6104841;23;20025;-76
2022/08/11 12:46:18;;;;;;;5.75;5.45;;;;;;;31.14;25.31;101635.16;6063588;23;20011;-76
2022/08/11 12:52:00;;;;;;;7.28;6.88;;;;;;;31.88;25.53;101693.63;6097994;23;20276;-76
2022/08/11 12:54:58;;;;;;;6.80;6.50;;;;;;;31.83;24.63;101622.78;6078901;23;20089;-76
2022/08/11 13:05:54;;;;;;;6.47;6.10;;;;;;;32.37;24.81;101651.13;6094492;23;20020;-76
2022/08/11 13:08:23;;;;;;;6.20;5.90;;;;;;;32.64;23.99;101678.47;6057844;23;20523;-77
2022/08/11 13:13:43;;;;;;;6.70;6.40;;;;;;;32.78;23.93;101666.63;6076871;23;20629;-78
2022/08/11 13:16:23;;;;;;;6.10;5.80;;;;;;;32.43;24.50;101576.97;6099552;23;20013;-76
2022/08/11 13:18:51;;;;;;;6.68;6.38;;;;;;;32.44;24.35;101594.97;6070491;23;20047;-77
2022/08/11 13:21:20;;;;;;;6.63;6.30;;;;;;;32.23;25.19;101524.44;6091760;23;20017;-76
2022/08/11 13:23:53;;;;;;;7.57;7.18;;;;;;;32.99;23.29;101655.56;6089684;23;20255;-77
2022/08/11 13:26:36;;;;;;;6.03;5.73;;;;;;;31.94;23.38;101588.84;6087972;23;20022;-78
2022/08/11 13:29:27;;;;;;;7.50;7.10;;;;;;;32.16;24.10;101673.81;6087772;23;20013;-77
2022/08/11 13:31:58;;;;;;;6.50;6.20;;;;;;;32.19;23.50;101666.13;6088643;23;20399;-78
2022/08/11 13:34:32;;;;;;;6.38;6.00;;;;;;;32.11;24.03;101649.94;6097758;23;20044;-77
2022/08/11 13:37:01;;;;;;;6.00;5.70;;;;;;;32.03;23.81;101636.53;6059663;23;20077;-77
2022/08/11 13:39:32;;;;;;;6.10;5.80;;;;;;;32.02;24.20;101582.44;6107109;23;20017;-77
2022/08/11 13:44:53;;;;;;;6.33;6.03;;;;;;;31.88;24.85;101562.50;6102156;18;20119;-76
2022/08/11 13:47:28;;;;;;;5.85;5.55;;;;;;;28.77;23.71;101038.66;6081027;23;20282;-75
2022/08/11 13:49:56;;;;;;;6.38;5.97;;;;;;;30.09;24.37;101287.13;6108848;23;20025;-76
2022/08/11 13:52:23;;;;;;;6.10;5.80;;;;;;;32.07;25.70;101553.63;6086472;23;20010;-76
2022/08/11 13:54:52;;;;;;;6.88;6.57;;;;;;;32.37;24.82;101547.91;6074936;23;20045;-77
2022/08/11 13:57:20;;;;;;;6.03;5.63;;;;;;;33.04;23.80;101632.34;6134861;23;20033;-76
2022/08/11 14:00:08;;;;;;;5.90;5.60;;;;;;;32.78;22.96;101644.88;6094543;23;20447;-77
2022/08/11 14:02:52;;;;;;;6.40;6.00;;;;;;;32.64;23.04;101640.44;6113765;23;20229;-77
2022/08/11 14:05:25;;;;;;;6.35;6.00;;;;;;;33.06;24.34;101620.25;6082161;23;20466;-76
2022/08/11 14:08:00;;;;;;;5.70;5.40;;;;;;;32.75;24.29;101580.03;6088353;23;20038;-77
2022/08/11 14:10:30;;;;;;;6.10;5.80;;;;;;;33.07;23.76;101594.72;6068255;23;20138;-75
2022/08/11 14:15:52;;;;;;;6.10;5.80;;;;;;;32.19;23.55;101535.75;6109096;23;20060;-76
2022/08/11 14:18:25;;;;;;;6.07;5.78;;;;;;;32.69;23.35;101637.94;6137555;23;20018;-76
2022/08/11 14:23:46;;;;;;;7.57;7.15;;;;;;;32.43;23.69;101555.22;6142694;23;20015;-75
2022/08/11 14:26:28;;;;;;;5.72;5.43;;;;;;;31.97;24.00;101542.28;6072110;23;20072;-75
2022/08/11 14:29:07;;;;;;;5.88;5.57;;;;;;;32.15;23.33;101596.06;6130035;23;20016;-78
2022/08/11 14:31:42;;;;;;;6.22;5.93;;;;;;;32.34;24.01;101603.50;6109517;23;20228;-75
2022/08/11 14:34:11;;;;;;;6.28;5.88;;;;;;;32.55;24.03;101615.28;6136147;23;20052;-76
2022/08/11 14:36:41;;;;;;;7.57;7.07;;;;;;;32.15;24.00;101632.22;6096368;23;20162;-75
2022/08/11 14:39:16;;;;;;;6.30;5.90;;;;;;;31.95;23.94;101623.94;6133433;23;20020;-77
2022/08/11 14:47:32;;;;;;;6.30;6.00;;;;;;;31.97;24.70;101547.69;6103379;23;20021;-75
2022/08/11 14:50:01;;;;;;;6.30;5.97;;;;;;;32.12;24.18;101582.91;6129738;23;20418;-75
2022/08/11 14:52:42;;;;;;;6.72;6.32;;;;;;;31.95;23.83;101599.50;6078888;23;20025;-75
2022/08/11 14:58:03;;;;;;;5.93;5.63;;;;;;;31.82;23.85;101612.16;6075097;23;20046;-74
2022/08/11 15:00:33;;;;;;;6.35;6.05;;;;;;;31.65;23.59;101617.88;6109271;23;20467;-74
2022/08/11 15:03:13;;;;;;;6.00;5.70;;;;;;;31.78;24.07;101612.53;6062241;18;20023;-75
2022/08/11 15:05:42;;;;;;;7.70;7.30;;;;;;;32.10;24.38;101604.84;6070359;23;20332;-74
2022/08/11 15:09:09;;;;;;;;;;;;;;;32.24;23.73;101591.34;6082245;23;20403;-76
2022/08/11 15:13:59;;;;;;;5.80;5.50;;;;;;;32.13;24.11;101524.81;6050667;23;20086;-75
2022/08/11 15:19:14;;;;;;;6.07;5.78;;;;;;;31.90;24.33;101520.53;6070557;23;20025;-75
2022/08/11 15:24:26;;;;;;;6.20;5.90;;;;;;;32.39;25.02;101567.56;6079686;23;20683;-75
2022/08/11 15:38:35;;;;;;;5.90;5.60;;;;;;;32.17;23.74;101499.78;6054818;23;20079;-77
2022/08/11 15:47:24;;;;;;;6.10;5.80;;;;;;;31.50;25.33;101543.88;6043403;23;20025;-75
2022/08/11 15:49:55;;;;;;;6.40;6.03;;;;;;;31.78;25.23;101566.41;6050165;23;20105;-75
2022/08/11 15:52:47;;;;;;;7.38;6.97;;;;;;;31.74;25.34;101554.25;6045312;23;20173;-76
2022/08/11 15:55:14;;;;;;;6.18;5.88;;;;;;;31.33;24.48;101497.19;6076850;23;20020;-75
2022/08/11 16:04:13;;;;;;;6.60;6.20;;;;;;;31.84;25.89;101524.06;6052749;23;20531;-73
2022/08/11 16:06:50;;;;;;;6.57;6.28;;;;;;;31.11;25.01;101448.47;6030122;23;20289;-74
2022/08/11 16:09:45;;;;;;;6.13;5.82;;;;;;;31.06;25.59;101428.38;6041717;23;20015;-75
2022/08/11 16:12:22;;;;;;;6.00;5.70;;;;;;;31.38;25.89;101484.72;6066509;23;20005;-76
2022/08/11 16:18:04;;;;;;;7.32;6.93;;;;;;;30.55;26.25;101445.63;6068390;23;20026;-74
2022/08/11 16:20:35;;;;;;;6.15;5.85;;;;;;;27.76;26.40;100990.63;6074960;23;20056;-74
2022/08/11 16:23:16;;;;;;;5.95;5.65;;;;;;;30.62;26.43;101427.59;6049228;23;21278;-76
2022/08/11 16:25:48;;;;;;;7.05;6.65;;;;;;;31.35;26.24;101533.94;6058533;23;20329;-76
2022/08/11 16:28:43;;;;;;;6.65;6.35;;;;;;;30.59;26.00;101406.28;6076017;23;20021;-76
2022/08/11 16:31:10;;;;;;;5.90;5.60;;;;;;;30.92;26.62;101479.78;6055059;23;20018;-76
2022/08/11 16:33:40;;;;;;;7.10;6.70;;;;;;;31.10;26.88;101511.00;6028083;23;20029;-77
2022/08/11 16:39:05;;;;;;;6.38;6.03;;;;;;;31.03;27.17;101535.34;6062017;23;20101;-76
2022/08/11 16:47:15;;;;;;;6.55;6.15;;;;;;;31.01;26.36;101543.69;6061653;23;20088;-77
2022/08/11 16:49:48;;;;;;;7.35;6.95;;;;;;;30.55;26.98;101470.88;6043430;23;20593;-75
2022/08/11 16:52:21;;;;;;;6.00;5.70;;;;;;;30.48;26.85;101480.81;6035343;23;20026;-75
2022/08/11 16:54:49;;;;;;;7.15;6.75;;;;;;;30.72;27.03;101512.09;6065277;23;20025;-75
2022/08/11 17:00:11;;;;;;;6.53;6.13;;;;;;;30.77;26.93;101515.06;6074908;23;20056;-75
2022/08/11 17:14:19;;;;;;;7.05;6.65;;;;;;;29.99;27.60;101440.88;6064341;23;20006;-74
2022/08/11 17:17:04;;;;;;;5.85;5.55;;;;;;;30.11;27.83;101487.22;6053822;23;20037;-74
2022/08/11 17:19:33;;;;;;;6.15;5.85;;;;;;;30.20;27.35;101516.69;6045892;23;20102;-73
2022/08/11 17:25:12;;;;;;;6.22;5.93;;;;;;;30.08;28.08;101528.22;6056117;23;20097;-74
2022/08/11 17:27:40;;;;;;;6.75;6.45;;;;;;;29.50;28.06;101454.97;6064651;23;20014;-74
2022/08/11 17:30:12;;;;;;;5.93;5.63;;;;;;;29.29;28.19;101410.59;6057954;23;20018;-75
2022/08/11 17:35:40;;;;;;;6.18;5.88;;;;;;;29.17;28.25;101417.50;6073510;23;20013;-74
2022/08/11 17:38:09;;;;;;;6.45;6.05;;;;;;;29.73;28.22;101520.69;6060432;23;20399;-75